sensor_id;sensor_type;location;lat;lon;timestamp;P1;durP1;ratioP1;P2;durP2;ratioP2
21501;SDS011;27639;48.674;9.242;2022-09-21T00:02:24;8.57;;;4.78;;
21501;SDS011;27639;48.674;9.242;2022-09-21T00:04:49;9.77;;;4.70;;
21501;SDS011;27639;48.674;9.242;2022-09-21T00:07:15;7.07;;;4.28;;
21501;SDS011;27639;48.674;9.242;2022-09-21T00:09:40;7.10;;;4.25;;
21501;SDS011;27639;48.674;9.242;2022-09-21T00:12:06;6.13;;;4.03;;
21501;SDS011;27639;48.674;9.242;2022-09-21T00:14:33;8.80;;;4.20;;
21501;SDS011;27639;48.674;9.242;2022-09-21T00:16:59;8.23;;;4.80;;
21501;SDS011;27639;48.674;9.242;2022-09-21T00:19:24;6.97;;;3.88;;
21501;SDS011;27639;48.674;9.242;2022-09-21T00:21:53;6.60;;;3.70;;
21501;SDS011;27639;48.674;9.242;2022-09-21T00:24:19;6.57;;;3.80;;
21501;SDS011;27639;48.674;9.242;2022-09-21T00:26:44;7.70;;;4.13;;
21501;SDS011;27639;48.674;9.242;2022-09-21T00:29:10;7.20;;;4.35;;
21501;SDS011;27639;48.674;9.242;2022-09-21T00:31:37;6.55;;;3.97;;
21501;SDS011;27639;48.674;9.242;2022-09-21T00:34:03;7.80;;;4.60;;
21501;SDS011;27639;48.674;9.242;2022-09-21T00:36:31;7.38;;;4.60;;
21501;SDS011;27639;48.674;9.242;2022-09-21T00:38:58;8.05;;;4.43;;
21501;SDS011;27639;48.674;9.242;2022-09-21T00:41:26;7.55;;;4.28;;
21501;SDS011;27639;48.674;9.242;2022-09-21T00:46:45;6.72;;;4.18;;
21501;SDS011;27639;48.674;9.242;2022-09-21T00:49:13;8.57;;;4.68;;
21501;SDS011;27639;48.674;9.242;2022-09-21T00:51:39;8.80;;;4.47;;
21501;SDS011;27639;48.674;9.242;2022-09-21T00:54:08;9.93;;;5.68;;
21501;SDS011;27639;48.674;9.242;2022-09-21T00:56:39;8.07;;;4.45;;
21501;SDS011;27639;48.674;9.242;2022-09-21T00:59:06;7.47;;;4.22;;
21501;SDS011;27639;48.674;9.242;2022-09-21T01:01:33;6.47;;;3.85;;
21501;SDS011;27639;48.674;9.242;2022-09-21T01:04:00;6.90;;;4.22;;
21501;SDS011;27639;48.674;9.242;2022-09-21T01:06:26;6.95;;;4.07;;
21501;SDS011;27639;48.674;9.242;2022-09-21T01:08:52;5.90;;;3.72;;
21501;SDS011;27639;48.674;9.242;2022-09-21T01:11:26;7.72;;;4.40;;
21501;SDS011;27639;48.674;9.242;2022-09-21T01:14:20;9.43;;;4.35;;
21501;SDS011;27639;48.674;9.242;2022-09-21T01:20:07;7.53;;;4.03;;
21501;SDS011;27639;48.674;9.242;2022-09-21T01:22:47;6.93;;;4.18;;
21501;SDS011;27639;48.674;9.242;2022-09-21T01:31:02;7.15;;;4.45;;
21501;SDS011;27639;48.674;9.242;2022-09-21T01:33:32;7.85;;;4.50;;
21501;SDS011;27639;48.674;9.242;2022-09-21T01:36:06;8.10;;;4.25;;
21501;SDS011;27639;48.674;9.242;2022-09-21T01:38:41;9.10;;;4.32;;
21501;SDS011;27639;48.674;9.242;2022-09-21T01:41:14;8.27;;;4.25;;
21501;SDS011;27639;48.674;9.242;2022-09-21T01:43:48;6.25;;;3.97;;
21501;SDS011;27639;48.674;9.242;2022-09-21T01:46:19;6.90;;;3.88;;
21501;SDS011;27639;48.674;9.242;2022-09-21T01:48:47;6.78;;;4.15;;
21501;SDS011;27639;48.674;9.242;2022-09-21T01:51:17;7.05;;;3.72;;
21501;SDS011;27639;48.674;9.242;2022-09-21T01:53:58;9.25;;;4.25;;
21501;SDS011;27639;48.674;9.242;2022-09-21T01:56:36;5.97;;;3.95;;
21501;SDS011;27639;48.674;9.242;2022-09-21T01:59:06;6.60;;;4.07;;
21501;SDS011;27639;48.674;9.242;2022-09-21T02:01:38;5.80;;;3.35;;
21501;SDS011;27639;48.674;9.242;2022-09-21T02:04:10;7.75;;;3.58;;
21501;SDS011;27639;48.674;9.242;2022-09-21T02:06:37;7.07;;;3.95;;
21501;SDS011;27639;48.674;9.242;2022-09-21T02:09:06;7.07;;;3.83;;
21501;SDS011;27639;48.674;9.242;2022-09-21T02:11:33;7.85;;;3.47;;
21501;SDS011;27639;48.674;9.242;2022-09-21T02:14:02;6.68;;;3.70;;
21501;SDS011;27639;48.674;9.242;2022-09-21T02:16:33;8.27;;;4.22;;
21501;SDS011;27639;48.674;9.242;2022-09-21T02:27:03;6.38;;;3.95;;
21501;SDS011;27639;48.674;9.242;2022-09-21T02:32:08;6.28;;;3.80;;
21501;SDS011;27639;48.674;9.242;2022-09-21T02:34:44;8.48;;;4.22;;
21501;SDS011;27639;48.674;9.242;2022-09-21T02:40:30;7.45;;;4.47;;
21501;SDS011;27639;48.674;9.242;2022-09-21T02:43:02;6.80;;;4.13;;
21501;SDS011;27639;48.674;9.242;2022-09-21T02:45:40;6.80;;;4.00;;
21501;SDS011;27639;48.674;9.242;2022-09-21T02:48:12;7.07;;;4.45;;
21501;SDS011;27639;48.674;9.242;2022-09-21T02:50:52;8.05;;;4.10;;
21501;SDS011;27639;48.674;9.242;2022-09-21T02:53:23;7.75;;;3.70;;
21501;SDS011;27639;48.674;9.242;2022-09-21T02:55:53;7.70;;;4.40;;
21501;SDS011;27639;48.674;9.242;2022-09-21T02:58:20;8.32;;;4.68;;
21501;SDS011;27639;48.674;9.242;2022-09-21T03:00:48;8.75;;;4.25;;
21501;SDS011;27639;48.674;9.242;2022-09-21T03:03:18;6.90;;;4.20;;
21501;SDS011;27639;48.674;9.242;2022-09-21T03:05:48;7.72;;;4.35;;
21501;SDS011;27639;48.674;9.242;2022-09-21T03:08:16;7.53;;;4.18;;
21501;SDS011;27639;48.674;9.242;2022-09-21T03:10:42;7.75;;;4.60;;
21501;SDS011;27639;48.674;9.242;2022-09-21T03:13:08;7.50;;;4.18;;
21501;SDS011;27639;48.674;9.242;2022-09-21T03:15:37;8.40;;;4.10;;
21501;SDS011;27639;48.674;9.242;2022-09-21T03:18:04;6.82;;;4.10;;
21501;SDS011;27639;48.674;9.242;2022-09-21T03:20:33;8.30;;;4.32;;
21501;SDS011;27639;48.674;9.242;2022-09-21T03:22:59;6.97;;;4.18;;
21501;SDS011;27639;48.674;9.242;2022-09-21T03:25:25;10.00;;;4.18;;
21501;SDS011;27639;48.674;9.242;2022-09-21T03:27:52;7.32;;;4.20;;
21501;SDS011;27639;48.674;9.242;2022-09-21T03:30:22;7.78;;;3.83;;
21501;SDS011;27639;48.674;9.242;2022-09-21T03:32:52;8.90;;;4.63;;
21501;SDS011;27639;48.674;9.242;2022-09-21T03:35:19;6.43;;;3.90;;
21501;SDS011;27639;48.674;9.242;2022-09-21T03:37:46;7.85;;;4.47;;
21501;SDS011;27639;48.674;9.242;2022-09-21T03:40:13;8.32;;;4.43;;
21501;SDS011;27639;48.674;9.242;2022-09-21T03:42:39;7.03;;;3.97;;
21501;SDS011;27639;48.674;9.242;2022-09-21T03:45:06;5.95;;;3.83;;
21501;SDS011;27639;48.674;9.242;2022-09-21T03:47:32;6.57;;;3.83;;
21501;SDS011;27639;48.674;9.242;2022-09-21T03:49:59;6.88;;;3.95;;
21501;SDS011;27639;48.674;9.242;2022-09-21T03:52:24;7.03;;;3.63;;
21501;SDS011;27639;48.674;9.242;2022-09-21T03:54:50;8.95;;;4.70;;
21501;SDS011;27639;48.674;9.242;2022-09-21T03:57:15;7.30;;;4.65;;
21501;SDS011;27639;48.674;9.242;2022-09-21T03:59:41;7.28;;;4.03;;
21501;SDS011;27639;48.674;9.242;2022-09-21T04:02:07;7.28;;;4.30;;
21501;SDS011;27639;48.674;9.242;2022-09-21T04:04:33;6.70;;;4.15;;
21501;SDS011;27639;48.674;9.242;2022-09-21T04:06:58;6.38;;;3.88;;
21501;SDS011;27639;48.674;9.242;2022-09-21T04:09:24;8.43;;;4.18;;
21501;SDS011;27639;48.674;9.242;2022-09-21T04:11:50;5.95;;;4.05;;
21501;SDS011;27639;48.674;9.242;2022-09-21T04:14:17;9.55;;;4.28;;
21501;SDS011;27639;48.674;9.242;2022-09-21T04:16:42;8.55;;;3.92;;
21501;SDS011;27639;48.674;9.242;2022-09-21T04:19:08;6.40;;;3.67;;
21501;SDS011;27639;48.674;9.242;2022-09-21T04:21:34;6.35;;;4.13;;
21501;SDS011;27639;48.674;9.242;2022-09-21T04:23:59;7.43;;;4.25;;
21501;SDS011;27639;48.674;9.242;2022-09-21T04:26:29;7.75;;;4.22;;
21501;SDS011;27639;48.674;9.242;2022-09-21T04:28:56;8.57;;;4.32;;
21501;SDS011;27639;48.674;9.242;2022-09-21T04:31:23;9.52;;;5.63;;
21501;SDS011;27639;48.674;9.242;2022-09-21T04:33:50;9.93;;;5.03;;
21501;SDS011;27639;48.674;9.242;2022-09-21T04:36:19;8.05;;;4.90;;
21501;SDS011;27639;48.674;9.242;2022-09-21T04:38:46;7.82;;;4.65;;
21501;SDS011;27639;48.674;9.242;2022-09-21T04:41:12;9.13;;;4.38;;
21501;SDS011;27639;48.674;9.242;2022-09-21T04:43:40;7.75;;;4.32;;
21501;SDS011;27639;48.674;9.242;2022-09-21T04:46:07;8.48;;;4.80;;
21501;SDS011;27639;48.674;9.242;2022-09-21T04:48:34;9.25;;;5.07;;
21501;SDS011;27639;48.674;9.242;2022-09-21T04:51:00;8.48;;;4.68;;
21501;SDS011;27639;48.674;9.242;2022-09-21T04:53:27;8.15;;;4.45;;
21501;SDS011;27639;48.674;9.242;2022-09-21T04:55:53;6.93;;;4.20;;
21501;SDS011;27639;48.674;9.242;2022-09-21T04:58:19;7.53;;;4.50;;
21501;SDS011;27639;48.674;9.242;2022-09-21T05:00:48;8.98;;;4.68;;
21501;SDS011;27639;48.674;9.242;2022-09-21T05:03:15;8.05;;;4.72;;
21501;SDS011;27639;48.674;9.242;2022-09-21T05:05:45;11.07;;;4.95;;
21501;SDS011;27639;48.674;9.242;2022-09-21T05:08:15;7.82;;;5.30;;
21501;SDS011;27639;48.674;9.242;2022-09-21T05:10:41;8.60;;;4.75;;
21501;SDS011;27639;48.674;9.242;2022-09-21T05:13:07;8.50;;;4.78;;
21501;SDS011;27639;48.674;9.242;2022-09-21T05:15:33;7.40;;;4.40;;
21501;SDS011;27639;48.674;9.242;2022-09-21T05:18:01;8.45;;;4.70;;
21501;SDS011;27639;48.674;9.242;2022-09-21T05:20:27;11.43;;;4.80;;
21501;SDS011;27639;48.674;9.242;2022-09-21T05:22:52;8.32;;;4.80;;
21501;SDS011;27639;48.674;9.242;2022-09-21T05:25:18;8.30;;;4.93;;
21501;SDS011;27639;48.674;9.242;2022-09-21T05:27:43;8.27;;;4.85;;
21501;SDS011;27639;48.674;9.242;2022-09-21T05:30:09;8.13;;;4.95;;
21501;SDS011;27639;48.674;9.242;2022-09-21T05:32:47;8.55;;;4.82;;
21501;SDS011;27639;48.674;9.242;2022-09-21T05:37:54;8.20;;;4.65;;
21501;SDS011;27639;48.674;9.242;2022-09-21T05:40:25;8.63;;;5.05;;
21501;SDS011;27639;48.674;9.242;2022-09-21T05:42:51;8.23;;;5.13;;
21501;SDS011;27639;48.674;9.242;2022-09-21T05:45:17;12.07;;;5.47;;
21501;SDS011;27639;48.674;9.242;2022-09-21T05:47:47;12.48;;;6.18;;
21501;SDS011;27639;48.674;9.242;2022-09-21T06:00:37;9.95;;;5.70;;
21501;SDS011;27639;48.674;9.242;2022-09-21T06:03:25;9.25;;;5.65;;
21501;SDS011;27639;48.674;9.242;2022-09-21T06:05:52;9.27;;;5.47;;
21501;SDS011;27639;48.674;9.242;2022-09-21T06:08:17;10.88;;;5.13;;
21501;SDS011;27639;48.674;9.242;2022-09-21T06:10:43;9.82;;;5.80;;
21501;SDS011;27639;48.674;9.242;2022-09-21T06:13:09;9.15;;;5.85;;
21501;SDS011;27639;48.674;9.242;2022-09-21T06:15:35;11.82;;;5.95;;
21501;SDS011;27639;48.674;9.242;2022-09-21T06:18:04;9.73;;;5.82;;
21501;SDS011;27639;48.674;9.242;2022-09-21T06:20:30;10.95;;;5.93;;
21501;SDS011;27639;48.674;9.242;2022-09-21T06:23:00;7.95;;;5.35;;
21501;SDS011;27639;48.674;9.242;2022-09-21T06:25:33;10.45;;;5.53;;
21501;SDS011;27639;48.674;9.242;2022-09-21T06:28:03;8.35;;;4.88;;
21501;SDS011;27639;48.674;9.242;2022-09-21T06:30:34;7.75;;;5.30;;
21501;SDS011;27639;48.674;9.242;2022-09-21T06:33:00;11.23;;;5.40;;
21501;SDS011;27639;48.674;9.242;2022-09-21T06:35:28;9.50;;;5.40;;
21501;SDS011;27639;48.674;9.242;2022-09-21T06:37:58;10.40;;;5.90;;
21501;SDS011;27639;48.674;9.242;2022-09-21T06:40:25;8.88;;;5.25;;
21501;SDS011;27639;48.674;9.242;2022-09-21T06:42:58;6.80;;;4.72;;
21501;SDS011;27639;48.674;9.242;2022-09-21T06:45:24;8.18;;;5.10;;
21501;SDS011;27639;48.674;9.242;2022-09-21T06:47:50;6.30;;;4.30;;
21501;SDS011;27639;48.674;9.242;2022-09-21T06:50:16;7.22;;;3.92;;
21501;SDS011;27639;48.674;9.242;2022-09-21T06:52:42;6.15;;;4.50;;
21501;SDS011;27639;48.674;9.242;2022-09-21T06:55:07;8.13;;;4.85;;
21501;SDS011;27639;48.674;9.242;2022-09-21T06:57:36;7.88;;;4.93;;
21501;SDS011;27639;48.674;9.242;2022-09-21T07:00:03;8.27;;;5.10;;
21501;SDS011;27639;48.674;9.242;2022-09-21T07:02:29;8.60;;;4.93;;
21501;SDS011;27639;48.674;9.242;2022-09-21T07:04:55;8.55;;;5.18;;
21501;SDS011;27639;48.674;9.242;2022-09-21T07:07:20;7.60;;;5.35;;
21501;SDS011;27639;48.674;9.242;2022-09-21T07:09:46;8.68;;;5.15;;
21501;SDS011;27639;48.674;9.242;2022-09-21T07:12:11;9.50;;;5.78;;
21501;SDS011;27639;48.674;9.242;2022-09-21T07:14:38;8.10;;;5.53;;
21501;SDS011;27639;48.674;9.242;2022-09-21T07:17:04;7.25;;;5.18;;
21501;SDS011;27639;48.674;9.242;2022-09-21T07:19:30;8.32;;;5.68;;
21501;SDS011;27639;48.674;9.242;2022-09-21T07:21:55;8.55;;;5.60;;
21501;SDS011;27639;48.674;9.242;2022-09-21T07:24:21;7.53;;;5.30;;
21501;SDS011;27639;48.674;9.242;2022-09-21T07:26:47;7.68;;;5.35;;
21501;SDS011;27639;48.674;9.242;2022-09-21T07:29:13;7.50;;;5.13;;
21501;SDS011;27639;48.674;9.242;2022-09-21T07:31:41;6.70;;;4.30;;
21501;SDS011;27639;48.674;9.242;2022-09-21T07:34:08;7.68;;;4.32;;
21501;SDS011;27639;48.674;9.242;2022-09-21T07:36:35;7.28;;;4.80;;
21501;SDS011;27639;48.674;9.242;2022-09-21T07:39:00;7.97;;;4.90;;
21501;SDS011;27639;48.674;9.242;2022-09-21T07:41:27;11.40;;;5.25;;
21501;SDS011;27639;48.674;9.242;2022-09-21T07:43:52;7.93;;;5.38;;
21501;SDS011;27639;48.674;9.242;2022-09-21T07:46:18;6.53;;;4.38;;
21501;SDS011;27639;48.674;9.242;2022-09-21T07:48:44;8.90;;;4.97;;
21501;SDS011;27639;48.674;9.242;2022-09-21T07:51:12;10.25;;;6.15;;
21501;SDS011;27639;48.674;9.242;2022-09-21T07:53:40;7.70;;;5.28;;
21501;SDS011;27639;48.674;9.242;2022-09-21T07:56:09;7.80;;;5.20;;
21501;SDS011;27639;48.674;9.242;2022-09-21T07:58:36;8.45;;;4.85;;
21501;SDS011;27639;48.674;9.242;2022-09-21T08:01:21;7.63;;;5.22;;
21501;SDS011;27639;48.674;9.242;2022-09-21T08:03:48;7.75;;;4.43;;
21501;SDS011;27639;48.674;9.242;2022-09-21T08:06:14;7.45;;;5.00;;
21501;SDS011;27639;48.674;9.242;2022-09-21T08:08:40;7.70;;;4.45;;
21501;SDS011;27639;48.674;9.242;2022-09-21T08:11:06;6.55;;;3.85;;
21501;SDS011;27639;48.674;9.242;2022-09-21T08:13:32;5.55;;;3.45;;
21501;SDS011;27639;48.674;9.242;2022-09-21T08:15:59;6.20;;;3.42;;
21501;SDS011;27639;48.674;9.242;2022-09-21T08:18:25;7.63;;;3.25;;
21501;SDS011;27639;48.674;9.242;2022-09-21T08:20:52;6.55;;;3.63;;
21501;SDS011;27639;48.674;9.242;2022-09-21T08:23:24;7.13;;;3.63;;
21501;SDS011;27639;48.674;9.242;2022-09-21T08:25:51;6.07;;;3.20;;
21501;SDS011;27639;48.674;9.242;2022-09-21T08:28:17;5.20;;;3.17;;
21501;SDS011;27639;48.674;9.242;2022-09-21T08:30:42;5.25;;;3.22;;
21501;SDS011;27639;48.674;9.242;2022-09-21T08:33:08;6.13;;;3.20;;
21501;SDS011;27639;48.674;9.242;2022-09-21T08:35:34;4.45;;;2.70;;
21501;SDS011;27639;48.674;9.242;2022-09-21T08:38:01;5.60;;;2.95;;
21501;SDS011;27639;48.674;9.242;2022-09-21T08:40:26;5.28;;;2.67;;
21501;SDS011;27639;48.674;9.242;2022-09-21T08:45:43;6.05;;;2.70;;
21501;SDS011;27639;48.674;9.242;2022-09-21T08:48:15;5.03;;;2.75;;
21501;SDS011;27639;48.674;9.242;2022-09-21T08:50:48;5.03;;;2.65;;
21501;SDS011;27639;48.674;9.242;2022-09-21T08:53:19;5.75;;;3.17;;
21501;SDS011;27639;48.674;9.242;2022-09-21T08:55:49;5.88;;;2.40;;
21501;SDS011;27639;48.674;9.242;2022-09-21T08:58:27;5.10;;;2.42;;
21501;SDS011;27639;48.674;9.242;2022-09-21T09:06:40;4.80;;;2.13;;
21501;SDS011;27639;48.674;9.242;2022-09-21T09:09:18;5.28;;;2.60;;
21501;SDS011;27639;48.674;9.242;2022-09-21T09:12:07;6.40;;;2.30;;
21501;SDS011;27639;48.674;9.242;2022-09-21T09:22:44;5.03;;;1.90;;
21501;SDS011;27639;48.674;9.242;2022-09-21T09:25:22;3.90;;;1.80;;
21501;SDS011;27639;48.674;9.242;2022-09-21T09:27:52;4.45;;;1.83;;
21501;SDS011;27639;48.674;9.242;2022-09-21T09:30:21;4.45;;;1.73;;
21501;SDS011;27639;48.674;9.242;2022-09-21T09:35:47;4.38;;;1.55;;
21501;SDS011;27639;48.674;9.242;2022-09-21T09:38:23;3.60;;;1.77;;
21501;SDS011;27639;48.674;9.242;2022-09-21T09:44:17;4.78;;;1.23;;
21501;SDS011;27639;48.674;9.242;2022-09-21T09:49:40;4.25;;;1.85;;
21501;SDS011;27639;48.674;9.242;2022-09-21T09:52:13;4.40;;;1.50;;
21501;SDS011;27639;48.674;9.242;2022-09-21T09:54:40;4.20;;;1.45;;
21501;SDS011;27639;48.674;9.242;2022-09-21T09:57:06;3.35;;;1.25;;
21501;SDS011;27639;48.674;9.242;2022-09-21T09:59:34;4.22;;;1.60;;
21501;SDS011;27639;48.674;9.242;2022-09-21T10:02:17;3.10;;;1.40;;
21501;SDS011;27639;48.674;9.242;2022-09-21T10:07:36;3.42;;;1.40;;
21501;SDS011;27639;48.674;9.242;2022-09-21T10:13:23;2.42;;;1.10;;
21501;SDS011;27639;48.674;9.242;2022-09-21T10:23:50;2.63;;;1.02;;
21501;SDS011;27639;48.674;9.242;2022-09-21T10:26:20;3.70;;;1.10;;
21501;SDS011;27639;48.674;9.242;2022-09-21T10:31:22;2.65;;;1.00;;
21501;SDS011;27639;48.674;9.242;2022-09-21T10:33:59;3.53;;;0.90;;
21501;SDS011;27639;48.674;9.242;2022-09-21T10:36:39;2.55;;;1.00;;
21501;SDS011;27639;48.674;9.242;2022-09-21T10:39:15;2.75;;;1.10;;
21501;SDS011;27639;48.674;9.242;2022-09-21T10:42:34;2.38;;;0.90;;
21501;SDS011;27639;48.674;9.242;2022-09-21T10:44:46;3.67;;;0.88;;
21501;SDS011;27639;48.674;9.242;2022-09-21T10:47:21;1.83;;;0.85;;
21501;SDS011;27639;48.674;9.242;2022-09-21T10:50:01;2.10;;;0.70;;
21501;SDS011;27639;48.674;9.242;2022-09-21T10:52:47;2.22;;;0.60;;
21501;SDS011;27639;48.674;9.242;2022-09-21T10:55:15;2.72;;;0.77;;
21501;SDS011;27639;48.674;9.242;2022-09-21T10:57:43;2.95;;;0.82;;
21501;SDS011;27639;48.674;9.242;2022-09-21T11:02:55;2.35;;;0.70;;
21501;SDS011;27639;48.674;9.242;2022-09-21T11:05:35;1.75;;;0.52;;
21501;SDS011;27639;48.674;9.242;2022-09-21T11:21:21;2.97;;;0.60;;
21501;SDS011;27639;48.674;9.242;2022-09-21T11:27:06;2.08;;;0.57;;
21501;SDS011;27639;48.674;9.242;2022-09-21T11:32:28;1.25;;;0.50;;
21501;SDS011;27639;48.674;9.242;2022-09-21T11:37:49;3.08;;;0.60;;
21501;SDS011;27639;48.674;9.242;2022-09-21T11:46:25;2.30;;;0.80;;
21501;SDS011;27639;48.674;9.242;2022-09-21T11:49:18;1.63;;;0.70;;
21501;SDS011;27639;48.674;9.242;2022-09-21T11:57:30;3.58;;;0.90;;
21501;SDS011;27639;48.674;9.242;2022-09-21T12:05:31;2.95;;;0.80;;
21501;SDS011;27639;48.674;9.242;2022-09-21T12:14:07;2.83;;;0.63;;
21501;SDS011;27639;48.674;9.242;2022-09-21T12:17:57;2.35;;;0.70;;
21501;SDS011;27639;48.674;9.242;2022-09-21T12:22:27;2.28;;;0.60;;
21501;SDS011;27639;48.674;9.242;2022-09-21T12:30:26;2.67;;;0.80;;
21501;SDS011;27639;48.674;9.242;2022-09-21T12:33:17;2.25;;;0.70;;
21501;SDS011;27639;48.674;9.242;2022-09-21T12:35:50;2.00;;;0.75;;
21501;SDS011;27639;48.674;9.242;2022-09-21T12:38:25;2.92;;;0.50;;
21501;SDS011;27639;48.674;9.242;2022-09-21T12:46:02;2.83;;;0.70;;
21501;SDS011;27639;48.674;9.242;2022-09-21T12:48:41;3.73;;;0.50;;
21501;SDS011;27639;48.674;9.242;2022-09-21T12:51:19;1.23;;;0.50;;
21501;SDS011;27639;48.674;9.242;2022-09-21T12:53:53;3.17;;;0.80;;
21501;SDS011;27639;48.674;9.242;2022-09-21T12:56:30;1.95;;;0.60;;
21501;SDS011;27639;48.674;9.242;2022-09-21T13:01:53;1.83;;;0.70;;
21501;SDS011;27639;48.674;9.242;2022-09-21T13:07:58;2.85;;;0.52;;
21501;SDS011;27639;48.674;9.242;2022-09-21T13:13:00;2.00;;;0.55;;
21501;SDS011;27639;48.674;9.242;2022-09-21T13:15:32;3.28;;;0.60;;
21501;SDS011;27639;48.674;9.242;2022-09-21T13:20:45;1.75;;;0.70;;
21501;SDS011;27639;48.674;9.242;2022-09-21T13:23:16;1.88;;;0.70;;
21501;SDS011;27639;48.674;9.242;2022-09-21T13:25:46;2.30;;;0.50;;
21501;SDS011;27639;48.674;9.242;2022-09-21T13:30:47;1.33;;;0.60;;
21501;SDS011;27639;48.674;9.242;2022-09-21T13:33:36;2.03;;;0.57;;
21501;SDS011;27639;48.674;9.242;2022-09-21T13:36:10;1.45;;;0.57;;
21501;SDS011;27639;48.674;9.242;2022-09-21T13:39:17;1.80;;;0.68;;
21501;SDS011;27639;48.674;9.242;2022-09-21T13:41:43;2.17;;;0.65;;
21501;SDS011;27639;48.674;9.242;2022-09-21T13:44:36;2.85;;;0.60;;
21501;SDS011;27639;48.674;9.242;2022-09-21T13:47:06;2.15;;;0.60;;
21501;SDS011;27639;48.674;9.242;2022-09-21T13:49:38;1.48;;;0.60;;
21501;SDS011;27639;48.674;9.242;2022-09-21T14:10:39;2.65;;;0.70;;
21501;SDS011;27639;48.674;9.242;2022-09-21T14:13:22;2.20;;;0.60;;
21501;SDS011;27639;48.674;9.242;2022-09-21T14:15:52;1.65;;;0.70;;
21501;SDS011;27639;48.674;9.242;2022-09-21T14:18:20;2.25;;;0.60;;
21501;SDS011;27639;48.674;9.242;2022-09-21T14:23:32;1.58;;;0.73;;
21501;SDS011;27639;48.674;9.242;2022-09-21T14:25:59;3.85;;;0.73;;
21501;SDS011;27639;48.674;9.242;2022-09-21T14:31:07;1.77;;;0.43;;
21501;SDS011;27639;48.674;9.242;2022-09-21T14:33:46;2.10;;;0.63;;
21501;SDS011;27639;48.674;9.242;2022-09-21T14:36:21;2.03;;;0.73;;
21501;SDS011;27639;48.674;9.242;2022-09-21T14:38:54;1.65;;;0.70;;
21501;SDS011;27639;48.674;9.242;2022-09-21T14:43:53;1.67;;;0.80;;
21501;SDS011;27639;48.674;9.242;2022-09-21T14:52:12;1.83;;;0.80;;
21501;SDS011;27639;48.674;9.242;2022-09-21T15:00:46;2.60;;;1.00;;
21501;SDS011;27639;48.674;9.242;2022-09-21T15:05:52;2.13;;;0.70;;
21501;SDS011;27639;48.674;9.242;2022-09-21T15:08:27;3.47;;;0.60;;
21501;SDS011;27639;48.674;9.242;2022-09-21T15:11:30;2.55;;;0.75;;
21501;SDS011;27639;48.674;9.242;2022-09-21T15:16:49;1.55;;;0.63;;
21501;SDS011;27639;48.674;9.242;2022-09-21T15:19:28;2.13;;;0.75;;
21501;SDS011;27639;48.674;9.242;2022-09-21T15:24:56;2.42;;;0.90;;
21501;SDS011;27639;48.674;9.242;2022-09-21T15:27:27;3.63;;;0.82;;
21501;SDS011;27639;48.674;9.242;2022-09-21T15:29:57;2.03;;;0.80;;
21501;SDS011;27639;48.674;9.242;2022-09-21T15:32:40;1.33;;;0.57;;
21501;SDS011;27639;48.674;9.242;2022-09-21T15:35:15;1.85;;;0.70;;
21501;SDS011;27639;48.674;9.242;2022-09-21T15:37:46;2.10;;;0.70;;
21501;SDS011;27639;48.674;9.242;2022-09-21T15:43:32;2.28;;;0.80;;
21501;SDS011;27639;48.674;9.242;2022-09-21T15:45:56;1.63;;;0.70;;
21501;SDS011;27639;48.674;9.242;2022-09-21T15:48:26;4.07;;;0.95;;
21501;SDS011;27639;48.674;9.242;2022-09-21T15:51:00;1.95;;;0.70;;
21501;SDS011;27639;48.674;9.242;2022-09-21T15:53:48;1.73;;;0.60;;
21501;SDS011;27639;48.674;9.242;2022-09-21T15:56:20;2.25;;;0.80;;
21501;SDS011;27639;48.674;9.242;2022-09-21T15:58:49;1.50;;;0.65;;
21501;SDS011;27639;48.674;9.242;2022-09-21T16:01:18;2.67;;;0.80;;
21501;SDS011;27639;48.674;9.242;2022-09-21T16:03:47;2.25;;;0.77;;
21501;SDS011;27639;48.674;9.242;2022-09-21T16:06:34;1.83;;;0.70;;
21501;SDS011;27639;48.674;9.242;2022-09-21T16:11:55;2.72;;;0.98;;
21501;SDS011;27639;48.674;9.242;2022-09-21T16:14:21;2.05;;;0.80;;
21501;SDS011;27639;48.674;9.242;2022-09-21T16:19:41;2.85;;;1.10;;
21501;SDS011;27639;48.674;9.242;2022-09-21T16:22:11;3.15;;;1.02;;
21501;SDS011;27639;48.674;9.242;2022-09-21T16:27:55;2.05;;;0.90;;
21501;SDS011;27639;48.674;9.242;2022-09-21T16:30:38;2.28;;;0.80;;
21501;SDS011;27639;48.674;9.242;2022-09-21T16:35:58;4.22;;;1.00;;
21501;SDS011;27639;48.674;9.242;2022-09-21T16:38:25;1.23;;;0.60;;
21501;SDS011;27639;48.674;9.242;2022-09-21T16:40:51;2.47;;;0.90;;
21501;SDS011;27639;48.674;9.242;2022-09-21T16:43:18;2.83;;;0.80;;
21501;SDS011;27639;48.674;9.242;2022-09-21T16:45:44;2.78;;;0.85;;
21501;SDS011;27639;48.674;9.242;2022-09-21T16:48:11;1.80;;;0.90;;
21501;SDS011;27639;48.674;9.242;2022-09-21T16:50:37;3.40;;;1.20;;
21501;SDS011;27639;48.674;9.242;2022-09-21T16:53:03;4.60;;;1.75;;
21501;SDS011;27639;48.674;9.242;2022-09-21T16:55:28;2.80;;;1.05;;
21501;SDS011;27639;48.674;9.242;2022-09-21T16:57:54;2.40;;;1.00;;
21501;SDS011;27639;48.674;9.242;2022-09-21T17:00:20;2.00;;;0.85;;
21501;SDS011;27639;48.674;9.242;2022-09-21T17:02:46;1.63;;;0.65;;
21501;SDS011;27639;48.674;9.242;2022-09-21T17:05:12;2.40;;;0.85;;
21501;SDS011;27639;48.674;9.242;2022-09-21T17:07:52;2.33;;;0.95;;
21501;SDS011;27639;48.674;9.242;2022-09-21T17:10:20;1.83;;;0.90;;
21501;SDS011;27639;48.674;9.242;2022-09-21T17:12:52;2.30;;;0.90;;
21501;SDS011;27639;48.674;9.242;2022-09-21T17:15:19;4.07;;;1.73;;
21501;SDS011;27639;48.674;9.242;2022-09-21T17:17:47;7.97;;;4.22;;
21501;SDS011;27639;48.674;9.242;2022-09-21T17:20:16;3.00;;;1.40;;
21501;SDS011;27639;48.674;9.242;2022-09-21T17:22:59;3.03;;;1.23;;
21501;SDS011;27639;48.674;9.242;2022-09-21T17:25:27;6.78;;;3.42;;
21501;SDS011;27639;48.674;9.242;2022-09-21T17:27:54;3.75;;;1.40;;
21501;SDS011;27639;48.674;9.242;2022-09-21T17:30:27;3.42;;;1.40;;
21501;SDS011;27639;48.674;9.242;2022-09-21T17:32:53;4.15;;;1.77;;
21501;SDS011;27639;48.674;9.242;2022-09-21T17:35:32;4.88;;;1.77;;
21501;SDS011;27639;48.674;9.242;2022-09-21T17:40:30;4.05;;;1.80;;
21501;SDS011;27639;48.674;9.242;2022-09-21T17:43:13;4.65;;;2.00;;
21501;SDS011;27639;48.674;9.242;2022-09-21T17:45:57;4.55;;;1.73;;
21501;SDS011;27639;48.674;9.242;2022-09-21T17:48:29;3.22;;;1.27;;
21501;SDS011;27639;48.674;9.242;2022-09-21T17:50:55;3.42;;;1.17;;
21501;SDS011;27639;48.674;9.242;2022-09-21T17:53:21;3.38;;;1.15;;
21501;SDS011;27639;48.674;9.242;2022-09-21T17:58:53;4.93;;;1.83;;
21501;SDS011;27639;48.674;9.242;2022-09-21T18:01:29;5.50;;;1.90;;
21501;SDS011;27639;48.674;9.242;2022-09-21T18:04:06;3.28;;;1.52;;
21501;SDS011;27639;48.674;9.242;2022-09-21T18:06:35;8.35;;;2.13;;
21501;SDS011;27639;48.674;9.242;2022-09-21T18:09:01;3.72;;;2.20;;
21501;SDS011;27639;48.674;9.242;2022-09-21T18:14:30;4.53;;;2.03;;
21501;SDS011;27639;48.674;9.242;2022-09-21T18:20:04;3.65;;;1.95;;
21501;SDS011;27639;48.674;9.242;2022-09-21T18:22:50;4.07;;;1.77;;
21501;SDS011;27639;48.674;9.242;2022-09-21T18:25:27;4.47;;;2.30;;
21501;SDS011;27639;48.674;9.242;2022-09-21T18:27:56;5.05;;;2.63;;
21501;SDS011;27639;48.674;9.242;2022-09-21T18:30:26;5.13;;;2.40;;
21501;SDS011;27639;48.674;9.242;2022-09-21T18:35:49;6.30;;;3.00;;
21501;SDS011;27639;48.674;9.242;2022-09-21T18:38:34;8.70;;;5.15;;
21501;SDS011;27639;48.674;9.242;2022-09-21T18:46:52;7.30;;;5.18;;
21501;SDS011;27639;48.674;9.242;2022-09-21T18:52:46;7.38;;;4.40;;
21501;SDS011;27639;48.674;9.242;2022-09-21T18:55:28;7.22;;;4.78;;
21501;SDS011;27639;48.674;9.242;2022-09-21T18:57:57;6.75;;;4.30;;
21501;SDS011;27639;48.674;9.242;2022-09-21T19:00:24;7.40;;;4.70;;
21501;SDS011;27639;48.674;9.242;2022-09-21T19:02:55;15.55;;;7.90;;
21501;SDS011;27639;48.674;9.242;2022-09-21T19:05:22;10.43;;;6.00;;
21501;SDS011;27639;48.674;9.242;2022-09-21T19:07:58;7.00;;;5.20;;
21501;SDS011;27639;48.674;9.242;2022-09-21T19:10:37;11.73;;;5.75;;